Ellensburg, WA

1:08 PM PST on December 28, 2014 (GMT -0800)
Central Washington University | Change Station
CLOSE
Current Station
Personal Weather Station
Location: Ellensburg, WA
Elevation: 1598 ft
Nearby Weather Stations

Elev 1598 ft 47.01 °N, 120.54 °W | Updated 13 minutes ago

Clear
Clear
40.4 °F
Feels Like 33 °F
N
12.0
Wind Variable Wind from SE

Today
High -- | Low -- °F
--% Chance of Precip.
Yesterday
High -- | Low -- °F
Precip. -- in
7:47 AM 4:20 PM
Waxing Crescent, 51% visible
Pressure 30.12 in
Visibility 10.0 miles
Clouds Clear
Windchill 33 °F
Dew Point 33 °F
Humidity 74%
Rainfall 0.00 in
Snow Depth Not available.
UV 1.1 out of 12
Pollen .50 out of 12
Air Quality Not available.
Flu Activity Not available.
METAR KELN 282053Z AUTO 17007KT 10SM CLR 06/M01 A3009 RMK AO2 SLP199 T00561011 58005

More Conditions Fewer Conditions

Pressure 30.12 in
Visibility 10.0 miles
Clouds Clear
Windchill 33 °F
Dew Point 33 °F
Humidity 74%
Rainfall 0.00 in
Snow Depth Not available.
UV 1.1 out of 12
Pollen .50 out of 12
Air Quality Not available.
Flu Activity Not available.
METAR KELN 282053Z AUTO 17007KT 10SM CLR 06/M01 A3009 RMK AO2 SLP199 T00561011 58005

More Conditions Fewer Conditions

10-Day Weather Forecast

Almanac

Astronomy

Dec. 28, 2014 Rise Set
Actual Time
Civil Twilight
Nautical Twilight
Astronomical Twilight
Moon
Length of Visible Light
Length of Day
Tomorrow will be .
, % of the Moon is Illuminated

Today's Extremes

State Highs State Lows

Community

WunderPhotos

Upload Photos

1,781,423 photos uploaded!

WunderBlogs® & News

Nearby

Air Quality

  Air Quality AQ Index Pollutant
Not available.

Snow Depth

Station Depth Elevation

Earthquake Activity

City Distance Mag. Time & Date
Minimum magnitude displayed is 2.5.

Coastal Water Temperatures

Place Temperature

Nearby Weather Stations